Time;durP1;ratioP1;P1;durP2;ratioP2;P2;SDS_P1;SDS_P2;PMS_P1;PMS_P2;Temp;Humidity;BMP_temperature;BMP_pressure;BME280_temperature;BME280_humidity;BME280_pressure;Samples;Min_cycle;Max_cycle;Signal;HPM_P1;HPM_P2
2022/06/20 00:02:21;;;;;;;11.75;4.38;;;;;;;18.09;73.48;100017.66;5040830;28;20025;-69
2022/06/20 00:04:49;;;;;;;11.07;3.90;;;;;;;18.18;73.96;100009.97;5022169;28;20089;-69
2022/06/20 00:07:15;;;;;;;9.07;4.22;;;;;;;18.34;73.67;100017.91;5042443;28;20104;-70
2022/06/20 00:09:41;;;;;;;8.93;4.18;;;;;;;18.40;74.33;100014.06;5035955;28;20025;-70
2022/06/20 00:12:07;;;;;;;7.50;3.60;;;;;;;18.64;74.15;100011.72;5046697;28;20033;-71
2022/06/20 00:14:33;;;;;;;11.45;4.20;;;;;;;18.55;72.75;100012.25;5050434;28;20040;-70
2022/06/20 00:16:58;;;;;;;9.70;4.38;;;;;;;19.02;72.37;100027.16;5048630;28;20396;-70
2022/06/20 00:19:24;;;;;;;9.07;3.90;;;;;;;19.00;72.16;100026.41;5050307;28;20029;-70
2022/06/20 00:21:49;;;;;;;9.73;4.50;;;;;;;18.64;71.83;100041.84;5050092;28;20033;-69
2022/06/20 00:24:15;;;;;;;9.82;3.83;;;;;;;19.00;71.00;100048.56;5048648;28;20034;-70
2022/06/20 00:26:40;;;;;;;15.32;5.15;;;;;;;18.69;71.17;100044.22;5050346;28;20057;-70
2022/06/20 00:29:07;;;;;;;9.05;4.45;;;;;;;19.21;70.71;100043.69;5029761;28;20059;-70
2022/06/20 00:31:35;;;;;;;12.45;4.72;;;;;;;19.22;70.48;100039.22;5049688;28;20108;-70
2022/06/20 00:34:01;;;;;;;8.68;4.63;;;;;;;19.32;71.01;100046.53;5030831;28;20074;-70
2022/06/20 00:36:27;;;;;;;9.98;4.45;;;;;;;19.57;70.10;100060.97;5032283;28;20036;-70
2022/06/20 00:38:54;;;;;;;12.80;4.53;;;;;;;19.08;69.46;100064.91;5031785;28;20065;-70
2022/06/20 00:41:25;;;;;;;11.20;4.82;;;;;;;19.16;69.98;100088.41;5047996;28;20056;-71
2022/06/20 00:43:52;;;;;;;7.60;4.40;;;;;;;19.36;70.87;100084.50;5050295;28;20125;-69
2022/06/20 00:46:29;;;;;;;14.57;4.65;;;;;;;18.96;68.89;100086.97;5042213;28;20042;-70
2022/06/20 00:49:06;;;;;;;11.38;4.80;;;;;;;19.48;69.35;100090.88;5018669;28;20496;-70
2022/06/20 00:51:37;;;;;;;9.48;5.18;;;;;;;19.31;69.45;100087.47;5020733;28;20075;-71
2022/06/20 00:54:23;;;;;;;10.73;5.65;;;;;;;18.80;68.80;100081.72;5045672;28;20123;-71
2022/06/20 00:56:58;;;;;;;10.23;5.90;;;;;;;18.71;68.90;100084.91;5034208;28;20099;-70
2022/06/20 00:59:39;;;;;;;9.43;6.00;;;;;;;18.99;68.29;100091.22;5030666;28;20040;-70
2022/06/20 01:02:09;;;;;;;13.50;7.00;;;;;;;19.22;69.53;100085.34;5048068;28;20025;-69
2022/06/20 01:04:59;;;;;;;12.15;7.07;;;;;;;18.78;68.89;100074.75;5040147;28;20113;-70
2022/06/20 01:07:39;;;;;;;10.77;6.25;;;;;;;19.06;68.65;100077.44;5027900;28;20087;-71
2022/06/20 01:10:06;;;;;;;8.50;5.93;;;;;;;19.26;69.22;100086.88;5047549;28;20414;-70
2022/06/20 01:12:42;;;;;;;7.55;5.57;;;;;;;19.43;68.54;100084.03;5020042;28;20442;-71
2022/06/20 01:15:24;;;;;;;8.10;5.53;;;;;;;19.44;67.56;100092.88;5024620;28;20055;-71
2022/06/20 01:17:51;;;;;;;9.98;5.78;;;;;;;19.66;68.40;100081.72;5049657;28;20106;-71
2022/06/20 01:20:26;;;;;;;10.98;6.28;;;;;;;19.60;67.87;100082.94;5036311;28;20055;-71
2022/06/20 01:23:16;;;;;;;10.57;5.97;;;;;;;19.45;66.85;100079.44;5040762;28;20064;-68
2022/06/20 01:25:56;;;;;;;7.35;5.40;;;;;;;19.65;67.11;100074.69;5041525;28;20107;-72
2022/06/20 01:28:27;;;;;;;6.80;4.40;;;;;;;19.87;67.10;100074.19;5047598;28;20481;-71
2022/06/20 01:30:56;;;;;;;7.15;5.15;;;;;;;20.06;66.79;100069.31;5047937;28;20473;-71
2022/06/20 01:33:22;;;;;;;6.43;4.10;;;;;;;20.03;67.00;100052.66;5034617;28;20029;-71
2022/06/20 01:38:34;;;;;;;7.40;3.85;;;;;;;19.87;66.42;100048.38;5035101;28;20045;-72
2022/06/20 01:43:44;;;;;;;6.70;4.30;;;;;;;20.00;66.31;100035.09;5048467;28;20048;-71
2022/06/20 01:46:13;;;;;;;6.85;4.10;;;;;;;20.10;66.29;100021.97;5050913;28;20036;-72
2022/06/20 01:48:43;;;;;;;6.82;3.85;;;;;;;20.12;65.95;100018.25;5053114;28;20044;-71
2022/06/20 01:51:16;;;;;;;8.65;4.53;;;;;;;20.14;65.29;100012.81;5046154;28;20033;-71
2022/06/20 01:53:43;;;;;;;;;;;;;;;19.57;64.13;100018.34;5039253;28;20140;-71
2022/06/20 01:56:10;;;;;;;6.90;3.92;;;;;;;20.00;65.96;100015.56;5039627;28;19921;-71
2022/06/20 01:58:39;;;;;;;5.80;3.83;;;;;;;19.97;65.79;100015.75;5038683;28;20034;-71
2022/06/20 02:01:07;;;;;;;4.78;3.03;;;;;;;20.16;65.83;100005.56;5039630;28;20034;-71
2022/06/20 02:03:37;;;;;;;5.90;3.10;;;;;;;20.17;65.76;100018.78;5047792;28;20473;-72
2022/06/20 02:06:03;;;;;;;6.32;3.45;;;;;;;20.35;65.80;100039.88;5033218;28;20029;-71
2022/06/20 02:08:31;;;;;;;4.75;3.70;;;;;;;20.45;65.48;100042.75;5040562;28;20116;-72
2022/06/20 02:11:17;;;;;;;8.32;3.78;;;;;;;20.29;63.84;100048.28;5040890;28;20026;-72
2022/06/20 02:13:48;;;;;;;6.18;3.80;;;;;;;20.34;64.27;100063.00;5038234;28;20117;-72
2022/06/20 02:16:17;;;;;;;5.63;3.78;;;;;;;20.46;64.38;100065.81;5039373;28;20031;-72
2022/06/20 02:18:44;;;;;;;4.45;2.22;;;;;;;20.55;64.17;100065.25;5050188;28;20517;-72
2022/06/20 02:21:17;;;;;;;5.95;3.05;;;;;;;20.18;63.47;100059.66;5038024;28;20511;-71
2022/06/20 02:23:48;;;;;;;5.90;3.05;;;;;;;20.24;64.51;100067.25;5047218;28;20474;-71
2022/06/20 02:26:16;;;;;;;6.90;3.72;;;;;;;20.24;64.10;100061.94;5036277;28;20403;-70
2022/06/20 02:28:46;;;;;;;7.75;3.67;;;;;;;20.24;63.51;100056.59;5035581;28;20033;-72
2022/06/20 02:31:12;;;;;;;4.45;3.40;;;;;;;20.29;64.62;100058.94;5035724;28;20453;-71
2022/06/20 02:33:37;;;;;;;6.55;3.00;;;;;;;20.23;64.85;100064.69;5018396;28;20041;-72
2022/06/20 02:36:05;;;;;;;4.68;3.05;;;;;;;20.24;64.54;100059.25;5035576;28;20476;-70
2022/06/20 02:38:30;;;;;;;5.35;2.80;;;;;;;20.24;64.63;100077.94;5035878;28;20034;-70
2022/06/20 02:40:57;;;;;;;5.47;2.85;;;;;;;20.34;64.26;100073.69;5035876;28;20060;-72
2022/06/20 02:43:41;;;;;;;6.75;3.40;;;;;;;20.40;64.39;100062.59;5034453;28;20128;-72
2022/06/20 02:46:14;;;;;;;4.88;2.78;;;;;;;20.46;64.30;100034.66;5035812;28;20465;-72
2022/06/20 02:48:43;;;;;;;4.97;3.42;;;;;;;20.40;62.87;100067.94;5034336;28;20461;-72
2022/06/20 02:51:13;;;;;;;6.50;5.22;;;;;;;20.04;64.30;100070.41;5035998;28;20052;-71
2022/06/20 02:53:47;;;;;;;7.53;5.20;;;;;;;19.93;63.71;100079.09;5032013;28;20124;-72
2022/06/20 02:56:18;;;;;;;9.50;6.00;;;;;;;20.04;64.08;100084.59;5037596;28;20503;-71
2022/06/20 02:58:48;;;;;;;6.15;4.47;;;;;;;20.11;64.20;100080.56;5055230;28;20025;-71
2022/06/20 03:01:28;;;;;;;9.07;6.20;;;;;;;20.22;63.71;100082.50;5055409;28;20028;-72
2022/06/20 03:03:57;;;;;;;7.32;5.93;;;;;;;20.42;63.62;100092.69;5055303;28;20087;-71
2022/06/20 03:06:23;;;;;;;9.43;7.63;;;;;;;20.52;63.61;100118.81;5054959;28;20028;-72
2022/06/20 03:08:48;;;;;;;7.20;6.15;;;;;;;20.57;63.42;100106.00;5055070;28;20079;-72
2022/06/20 03:11:14;;;;;;;9.38;6.93;;;;;;;20.57;63.37;100106.88;5037625;28;20082;-71
2022/06/20 03:13:41;;;;;;;7.60;5.72;;;;;;;20.38;63.62;100109.88;5036957;28;20021;-72
2022/06/20 03:16:07;;;;;;;9.18;4.97;;;;;;;20.42;63.95;100102.53;5046973;28;20091;-72
2022/06/20 03:18:39;;;;;;;3.17;2.13;;;;;;;20.08;63.64;100099.44;5017462;28;20453;-73
2022/06/20 03:21:05;;;;;;;6.00;1.67;;;;;;;20.17;63.89;100093.47;5017502;28;20025;-71
2022/06/20 03:23:36;;;;;;;5.03;1.95;;;;;;;19.65;63.97;100090.69;5017032;28;20099;-71
2022/06/20 03:26:06;;;;;;;4.60;1.67;;;;;;;20.03;63.32;100079.34;5050786;28;20389;-71
2022/06/20 03:28:33;;;;;;;2.08;1.20;;;;;;;19.53;64.18;100094.09;5034710;28;20036;-70
2022/06/20 03:31:00;;;;;;;4.80;1.40;;;;;;;19.31;64.52;100082.13;5034625;28;20037;-72
2022/06/20 03:33:26;;;;;;;4.28;1.60;;;;;;;19.28;64.76;100079.66;5024967;28;20025;-71
2022/06/20 03:36:04;;;;;;;4.47;1.50;;;;;;;19.35;64.79;100074.78;5034424;28;20109;-71
2022/06/20 03:38:30;;;;;;;2.25;1.05;;;;;;;19.43;64.55;100080.50;5034928;28;20041;-71
2022/06/20 03:40:56;;;;;;;2.80;1.52;;;;;;;19.31;64.82;100097.22;5034693;28;20037;-71
2022/06/20 03:43:24;;;;;;;1.70;1.20;;;;;;;19.82;63.68;100103.78;5034905;28;20088;-71
2022/06/20 03:45:57;;;;;;;3.42;1.35;;;;;;;19.88;63.20;100119.38;5034514;28;20037;-72
2022/06/20 03:48:30;;;;;;;2.22;1.20;;;;;;;19.93;63.28;100111.94;5034460;28;20538;-71
2022/06/20 03:51:02;;;;;;;2.67;1.20;;;;;;;20.03;63.12;100128.22;5034263;28;20029;-72
2022/06/20 03:53:36;;;;;;;2.05;1.25;;;;;;;20.44;62.63;100137.97;5032912;28;20056;-72
2022/06/20 03:56:18;;;;;;;5.30;1.38;;;;;;;20.59;62.00;100139.66;5035615;28;20576;-72
2022/06/20 03:58:49;;;;;;;5.40;1.65;;;;;;;20.57;61.13;100148.72;5034156;28;20496;-72
2022/06/20 04:01:20;;;;;;;2.17;1.35;;;;;;;20.73;61.33;100146.72;5034515;28;20041;-72
2022/06/20 04:04:10;;;;;;;1.77;1.25;;;;;;;20.59;60.19;100141.47;5034409;28;20044;-71
2022/06/20 04:06:41;;;;;;;2.13;1.23;;;;;;;20.56;61.48;100128.34;5033096;28;20037;-72
2022/06/20 04:12:13;;;;;;;3.50;1.60;;;;;;;20.80;61.32;100124.00;5033604;28;20044;-71
2022/06/20 04:14:48;;;;;;;4.38;1.40;;;;;;;20.76;60.03;100111.81;5034149;28;20030;-73
2022/06/20 04:20:48;;;;;;;2.30;1.13;;;;;;;20.75;59.96;100115.47;5034243;28;20052;-73
2022/06/20 04:23:27;;;;;;;1.77;1.20;;;;;;;20.57;59.71;100106.00;4981512;28;20053;-71
2022/06/20 04:26:24;;;;;;;1.60;1.00;;;;;;;20.39;60.03;100108.94;5014125;28;20057;-71
2022/06/20 04:28:59;;;;;;;1.80;1.10;;;;;;;20.53;60.93;100093.84;5009693;28;20473;-73
2022/06/20 04:31:25;;;;;;;3.88;1.40;;;;;;;20.47;60.91;100104.88;5033483;28;20075;-72
2022/06/20 04:34:08;;;;;;;2.72;1.10;;;;;;;20.39;59.73;100105.41;5033660;28;20026;-73
2022/06/20 04:36:42;;;;;;;;;;;;;;;20.53;60.12;100099.16;5039155;28;20433;-72
2022/06/20 04:39:29;;;;;;;1.95;1.10;;;;;;;20.51;60.36;100104.63;5045809;28;19916;-69
2022/06/20 04:42:02;;;;;;;1.42;1.10;;;;;;;20.35;60.01;100112.75;5038542;28;20084;-71
2022/06/20 04:44:36;;;;;;;3.05;1.13;;;;;;;20.25;60.22;100110.78;5020489;28;20451;-69
2022/06/20 04:47:23;;;;;;;1.58;1.35;;;;;;;20.21;59.69;100133.28;5048290;28;20041;-72
2022/06/20 04:49:48;;;;;;;2.80;1.10;;;;;;;20.11;61.44;100141.91;5042319;28;20094;-72
2022/06/20 04:52:18;;;;;;;4.97;2.33;;;;;;;20.16;61.24;100139.78;5014775;28;20056;-72
2022/06/20 04:54:43;;;;;;;5.88;1.70;;;;;;;20.22;61.11;100143.84;5049476;28;20457;-70
2022/06/20 04:57:13;;;;;;;3.95;1.33;;;;;;;20.14;61.31;100135.50;5028359;28;20079;-71
2022/06/20 04:59:38;;;;;;;2.50;1.40;;;;;;;20.21;61.18;100119.97;5047531;28;20056;-71
2022/06/20 05:02:11;;;;;;;1.98;1.30;;;;;;;20.34;60.32;100088.84;5037471;28;20123;-69
2022/06/20 05:04:38;;;;;;;;;;;;;;;20.48;59.59;100070.09;5033741;28;20460;-70
2022/06/20 05:07:10;;;;;;;2.50;1.30;;;;;;;20.66;60.40;100052.00;5028420;28;20340;-70
2022/06/20 05:09:44;;;;;;;3.13;1.30;;;;;;;20.51;60.27;100063.75;5039262;28;20033;-71
2022/06/20 05:12:20;;;;;;;2.97;1.90;;;;;;;20.22;60.03;100058.50;5025292;28;20492;-71
2022/06/20 05:15:19;;;;;;;3.33;1.30;;;;;;;20.35;59.64;100059.41;5015770;28;20060;-72
2022/06/20 05:17:47;;;;;;;3.22;1.58;;;;;;;20.56;59.86;100056.28;5007178;28;20440;-71
2022/06/20 05:20:28;;;;;;;5.35;1.50;;;;;;;20.64;59.48;100064.59;5036918;28;20038;-71
2022/06/20 05:23:03;;;;;;;3.15;1.35;;;;;;;21.01;58.94;100051.38;5031188;28;20029;-71
2022/06/20 05:25:32;;;;;;;3.67;1.50;;;;;;;20.85;59.24;100059.59;5032827;28;20037;-71
2022/06/20 05:28:03;;;;;;;3.17;1.40;;;;;;;20.78;59.30;100075.19;5043227;28;20036;-70
2022/06/20 05:30:33;;;;;;;2.33;1.50;;;;;;;20.74;59.88;100079.03;5049027;28;20029;-71
2022/06/20 05:33:11;;;;;;;2.85;1.48;;;;;;;20.09;60.20;100065.63;5037667;28;20538;-72
2022/06/20 05:35:52;;;;;;;2.30;1.42;;;;;;;20.16;60.62;100053.59;5038190;28;20035;-72
2022/06/20 05:38:29;;;;;;;3.15;1.50;;;;;;;20.55;59.67;100049.22;5036163;28;20038;-73
2022/06/20 05:40:58;;;;;;;2.35;1.38;;;;;;;20.82;59.75;100022.41;5050994;28;20033;-73
2022/06/20 05:43:23;;;;;;;6.03;1.63;;;;;;;20.98;59.34;100023.06;5036784;28;20473;-73
2022/06/20 05:45:51;;;;;;;2.60;1.52;;;;;;;21.08;59.45;100016.13;5035651;28;20092;-73
2022/06/20 05:48:22;;;;;;;3.63;1.50;;;;;;;21.05;59.52;100018.16;5035492;28;20505;-72
2022/06/20 05:50:59;;;;;;;4.85;2.97;;;;;;;21.12;59.84;100017.59;5035404;28;20107;-71
2022/06/20 05:53:38;;;;;;;5.38;3.10;;;;;;;21.00;59.80;100049.66;5035339;28;20046;-73
2022/06/20 05:56:14;;;;;;;7.93;3.70;;;;;;;20.73;59.83;100058.63;5002272;28;20041;-73
2022/06/20 05:58:42;;;;;;;7.78;3.28;;;;;;;20.52;60.04;100070.78;5036105;28;20040;-72
2022/06/20 06:01:14;;;;;;;5.97;3.90;;;;;;;20.19;60.42;100064.06;5036441;28;20488;-74
2022/06/20 06:03:51;;;;;;;6.20;2.93;;;;;;;19.87;60.87;100055.53;5018710;28;20029;-72
2022/06/20 06:06:23;;;;;;;6.32;2.30;;;;;;;19.81;61.13;100027.44;5036512;28;20053;-73
2022/06/20 06:08:56;;;;;;;5.93;3.03;;;;;;;19.80;60.83;100033.72;5036330;28;20041;-73
2022/06/20 06:11:31;;;;;;;8.27;2.58;;;;;;;19.86;61.53;100043.97;5036707;28;20057;-73
2022/06/20 06:14:14;;;;;;;8.93;2.95;;;;;;;19.57;61.46;100044.97;5036255;28;20036;-73
2022/06/20 06:17:10;;;;;;;6.05;3.17;;;;;;;19.41;62.27;100039.78;5051989;28;20026;-72
2022/06/20 06:19:44;;;;;;;7.70;2.85;;;;;;;19.48;61.89;100038.44;5023224;28;20049;-72
2022/06/20 06:22:23;;;;;;;7.57;3.10;;;;;;;19.34;61.82;100039.31;5045667;28;20029;-73
2022/06/20 06:24:54;;;;;;;8.07;2.90;;;;;;;19.39;61.93;100041.69;5042931;28;20405;-72
2022/06/20 06:27:23;;;;;;;6.43;2.78;;;;;;;19.51;61.15;100056.03;5037222;28;20116;-73
2022/06/20 06:30:03;;;;;;;9.88;3.42;;;;;;;19.78;60.47;100050.75;5034054;28;20095;-72
2022/06/20 06:32:55;;;;;;;5.97;2.80;;;;;;;20.22;59.87;100041.63;5035639;28;20033;-73
2022/06/20 06:35:26;;;;;;;6.15;2.45;;;;;;;19.82;60.40;100021.13;5015597;28;20041;-73
2022/06/20 06:38:24;;;;;;;6.65;2.72;;;;;;;19.93;60.02;100018.63;5029813;28;20037;-72
2022/06/20 06:40:52;;;;;;;7.07;2.50;;;;;;;19.71;60.59;99999.69;4996974;28;20541;-72
2022/06/20 06:43:37;;;;;;;5.05;2.30;;;;;;;20.48;58.28;99984.72;5035450;28;20032;-70
2022/06/20 06:46:06;;;;;;;5.90;2.60;;;;;;;19.89;59.29;99994.94;5035377;28;20083;-71
2022/06/20 06:48:39;;;;;;;6.35;2.40;;;;;;;19.84;59.78;99989.91;5024313;28;20390;-72
2022/06/20 06:51:11;;;;;;;5.88;2.88;;;;;;;19.52;60.60;100000.00;5012968;28;20030;-73
2022/06/20 06:53:40;;;;;;;5.15;2.55;;;;;;;19.92;60.10;100011.59;5004393;28;20045;-72
2022/06/20 06:56:14;;;;;;;6.30;2.00;;;;;;;20.36;59.06;100037.09;5017629;28;20120;-72
2022/06/20 06:58:53;;;;;;;5.65;2.13;;;;;;;19.86;59.59;100022.63;5019183;28;20120;-72
2022/06/20 07:01:31;;;;;;;6.93;2.50;;;;;;;19.49;61.03;100017.97;5018503;28;20088;-72
2022/06/20 07:04:02;;;;;;;6.18;2.28;;;;;;;20.09;60.12;100009.59;5010596;28;20033;-72
2022/06/20 07:06:37;;;;;;;4.50;2.40;;;;;;;20.22;59.29;100022.97;5028552;28;20037;-72
2022/06/20 07:09:10;;;;;;;6.85;3.75;;;;;;;19.90;59.50;100026.81;5026326;28;20029;-73
2022/06/20 07:11:40;;;;;;;7.03;3.50;;;;;;;20.25;58.89;100020.94;5008492;28;20085;-74
2022/06/20 07:14:21;;;;;;;7.20;3.33;;;;;;;20.36;57.76;100028.25;5012754;28;20026;-73
2022/06/20 07:17:02;;;;;;;6.47;3.30;;;;;;;20.50;58.08;100038.00;5018735;28;20077;-72
2022/06/20 07:19:28;;;;;;;5.50;3.13;;;;;;;20.53;58.44;100029.78;5012159;28;20385;-72
2022/06/20 07:21:58;;;;;;;4.03;2.35;;;;;;;20.30;57.89;100034.81;4997522;28;20033;-73
2022/06/20 07:24:28;;;;;;;5.03;3.10;;;;;;;19.83;59.40;100046.84;5029768;28;20068;-72
2022/06/20 07:27:08;;;;;;;7.57;2.90;;;;;;;19.73;59.74;100058.22;5013430;28;20120;-72
2022/06/20 07:29:38;;;;;;;4.95;2.08;;;;;;;19.97;58.50;100053.09;5023002;28;20033;-73
2022/06/20 07:32:09;;;;;;;4.75;1.80;;;;;;;20.43;58.34;100062.41;5015480;28;20026;-73
2022/06/20 07:34:58;;;;;;;7.25;2.65;;;;;;;19.93;58.00;100053.28;5014853;28;20038;-73
2022/06/20 07:37:29;;;;;;;7.00;2.63;;;;;;;19.94;59.30;100065.66;5018191;28;20049;-71
2022/06/20 07:40:02;;;;;;;5.53;3.22;;;;;;;20.87;56.89;100077.22;4998012;28;20045;-73
2022/06/20 07:42:40;;;;;;;5.78;3.17;;;;;;;21.09;56.64;100076.56;4997899;28;20502;-73
2022/06/20 07:45:16;;;;;;;7.28;4.10;;;;;;;20.41;56.54;100072.31;4997054;28;20125;-73
2022/06/20 07:47:46;;;;;;;5.40;3.20;;;;;;;21.39;55.80;100081.63;5014466;28;20032;-72
2022/06/20 07:50:16;;;;;;;7.30;3.65;;;;;;;21.10;55.89;100085.44;5014713;28;20486;-73
2022/06/20 07:53:01;;;;;;;3.88;2.65;;;;;;;21.37;55.72;100096.03;5022213;28;20045;-73
2022/06/20 07:55:30;;;;;;;5.20;2.58;;;;;;;21.85;55.37;100098.81;5034549;28;20037;-73
2022/06/20 07:58:05;;;;;;;6.47;3.10;;;;;;;21.90;53.90;100085.97;5034453;28;20029;-73
2022/06/20 08:00:39;;;;;;;4.45;2.50;;;;;;;21.35;54.53;100092.63;5034095;28;20030;-73
2022/06/20 08:03:33;;;;;;;7.05;2.40;;;;;;;21.47;53.72;100088.25;5049734;28;20033;-73
2022/06/20 08:06:13;;;;;;;5.72;2.95;;;;;;;21.52;53.97;100102.97;5034236;28;20454;-73
2022/06/20 08:08:50;;;;;;;5.65;1.75;;;;;;;21.23;55.10;100117.53;5033936;28;20037;-72
2022/06/20 08:11:43;;;;;;;6.72;1.58;;;;;;;21.49;54.47;100124.56;5049269;28;20041;-72
2022/06/20 08:14:58;;;;;;;4.00;1.70;;;;;;;21.98;52.45;100128.19;5016819;28;20059;-73
2022/06/20 08:17:25;;;;;;;5.35;1.75;;;;;;;22.00;53.53;100129.81;4954289;29;20035;-73
2022/06/20 08:19:51;;;;;;;4.55;1.73;;;;;;;21.85;53.88;100118.38;5017282;28;20045;-72
2022/06/20 08:22:30;;;;;;;3.55;1.58;;;;;;;21.51;53.15;100137.84;5034368;28;20048;-73
2022/06/20 08:25:08;;;;;;;2.92;1.65;;;;;;;21.55;53.08;100136.66;5033725;28;20056;-72
2022/06/20 08:27:42;;;;;;;4.65;2.10;;;;;;;21.56;52.69;100133.88;5033874;28;20029;-73
2022/06/20 08:30:15;;;;;;;5.55;2.40;;;;;;;21.91;53.03;100146.53;5016009;28;20021;-72
2022/06/20 08:32:50;;;;;;;4.03;2.40;;;;;;;21.82;53.20;100156.06;5033634;28;20029;-73
2022/06/20 08:35:33;;;;;;;5.20;2.80;;;;;;;22.06;51.61;100174.84;5033943;28;20528;-73
2022/06/20 08:38:12;;;;;;;5.05;2.40;;;;;;;22.20;52.04;100173.84;5033480;28;20057;-73
2022/06/20 08:41:02;;;;;;;5.43;2.92;;;;;;;21.99;52.23;100175.41;5049654;28;20389;-73
2022/06/20 08:43:59;;;;;;;5.53;2.67;;;;;;;21.97;52.06;100194.22;5033831;28;20543;-73
2022/06/20 08:46:41;;;;;;;5.47;2.45;;;;;;;21.75;52.67;100202.09;5032727;28;20046;-73
2022/06/20 08:49:44;;;;;;;5.05;2.60;;;;;;;21.45;53.64;100202.41;5033399;28;20109;-72
2022/06/20 08:52:38;;;;;;;5.28;2.10;;;;;;;21.14;54.42;100207.16;5032667;28;20385;-72
2022/06/20 08:55:06;;;;;;;9.48;3.30;;;;;;;20.71;55.39;100227.91;5022770;28;20122;-72
2022/06/20 08:57:56;;;;;;;5.93;2.85;;;;;;;20.50;56.03;100233.66;5034209;28;20132;-73
2022/06/20 09:00:30;;;;;;;4.43;2.67;;;;;;;20.46;56.88;100224.09;5033586;28;20034;-72
2022/06/20 09:03:18;;;;;;;5.40;2.60;;;;;;;20.59;57.39;100224.22;5015686;28;20047;-73
2022/06/20 09:06:07;;;;;;;4.40;2.63;;;;;;;20.48;57.72;100224.03;5015800;28;20512;-73
2022/06/20 09:08:45;;;;;;;3.78;2.20;;;;;;;20.38;58.11;100213.94;5015582;28;20398;-73
2022/06/20 09:12:05;;;;;;;2.85;1.95;;;;;;;20.66;57.84;100206.81;5033395;28;20123;-72
2022/06/20 09:14:52;;;;;;;5.65;2.40;;;;;;;20.67;57.66;100219.22;4953185;28;20048;-73
2022/06/20 09:17:49;;;;;;;5.38;2.10;;;;;;;20.70;57.49;100202.97;5033291;28;20087;-72
2022/06/20 09:20:31;;;;;;;5.72;2.58;;;;;;;20.73;57.60;100197.44;5048588;28;20036;-72
2022/06/20 09:23:12;;;;;;;4.43;2.35;;;;;;;20.91;57.54;100195.38;5033209;28;20079;-73
2022/06/20 09:25:52;;;;;;;4.55;2.30;;;;;;;21.17;56.52;100181.09;5015727;28;20043;-73
2022/06/20 09:28:39;;;;;;;3.92;2.15;;;;;;;21.45;55.88;100163.16;5033376;28;20441;-72
2022/06/20 09:31:10;;;;;;;5.68;2.50;;;;;;;20.79;57.57;100148.16;5032987;28;20084;-73
2022/06/20 09:33:56;;;;;;;4.45;2.30;;;;;;;20.76;58.22;100118.97;5033243;28;20025;-72
2022/06/20 09:36:55;;;;;;;6.70;2.35;;;;;;;20.12;60.11;100079.59;5033170;28;20033;-72
2022/06/20 09:39:29;;;;;;;4.53;2.10;;;;;;;20.55;59.17;100065.25;5033641;28;20040;-73
2022/06/20 09:42:21;;;;;;;4.88;1.90;;;;;;;20.86;58.47;100056.81;5033100;28;20038;-72
2022/06/20 09:45:10;;;;;;;6.18;2.60;;;;;;;21.14;57.52;100031.72;5032991;28;20030;-73
2022/06/20 09:47:38;;;;;;;3.90;2.58;;;;;;;21.31;56.83;99982.41;5015263;28;20040;-72
2022/06/20 09:50:31;;;;;;;4.35;2.45;;;;;;;21.59;57.20;99972.41;5033341;28;20125;-73
2022/06/20 09:53:32;;;;;;;4.18;2.70;;;;;;;22.00;55.40;99996.06;5033343;28;20054;-72
2022/06/20 09:56:00;;;;;;;4.38;2.47;;;;;;;22.08;55.56;99985.63;5020958;28;20048;-72
2022/06/20 09:59:13;;;;;;;5.90;2.72;;;;;;;22.33;55.04;100016.75;5031770;28;20160;-70
2022/06/20 10:01:55;;;;;;;4.93;2.90;;;;;;;22.37;54.93;100023.56;4935505;29;20565;-71
2022/06/20 10:04:40;;;;;;;5.65;2.67;;;;;;;22.48;54.49;100013.88;5014377;28;20045;-72
2022/06/20 10:07:36;;;;;;;6.15;2.88;;;;;;;22.76;54.25;100008.09;5050740;28;20358;-72
2022/06/20 10:10:09;;;;;;;5.80;2.50;;;;;;;22.63;54.57;99996.63;5029612;28;20052;-73
2022/06/20 10:12:55;;;;;;;5.35;2.60;;;;;;;22.75;53.99;100001.03;5036276;28;20091;-73
2022/06/20 10:15:50;;;;;;;4.28;1.88;;;;;;;22.92;53.78;99980.13;5018481;28;20034;-73
2022/06/20 10:18:22;;;;;;;5.00;2.15;;;;;;;22.99;53.83;99970.63;5036452;28;20055;-73
2022/06/20 10:21:01;;;;;;;4.43;2.08;;;;;;;23.03;53.44;99964.91;5036173;28;20040;-73
2022/06/20 10:23:48;;;;;;;7.88;2.03;;;;;;;23.02;53.08;99970.38;5036262;28;20065;-73
2022/06/20 10:26:16;;;;;;;3.67;1.65;;;;;;;22.77;54.42;99983.00;5036084;28;20405;-72
2022/06/20 10:29:17;;;;;;;4.13;1.40;;;;;;;22.73;53.52;99986.91;5035764;28;20060;-73
2022/06/20 10:32:11;;;;;;;4.15;1.80;;;;;;;22.79;53.50;100001.66;4986586;28;20037;-73
2022/06/20 10:34:42;;;;;;;2.75;1.55;;;;;;;22.81;53.80;100008.56;5019362;28;20052;-73
2022/06/20 10:37:33;;;;;;;4.32;1.42;;;;;;;23.03;53.15;100012.28;5035647;28;20362;-72
2022/06/20 10:40:11;;;;;;;4.65;1.92;;;;;;;23.23;52.55;100000.81;5014745;28;20052;-73
2022/06/20 10:42:51;;;;;;;6.63;2.15;;;;;;;23.00;52.98;99988.41;5037722;28;20380;-73
2022/06/20 10:45:37;;;;;;;5.82;2.47;;;;;;;22.82;53.09;99979.94;5042331;28;20072;-73
2022/06/20 10:48:13;;;;;;;7.70;3.03;;;;;;;22.72;53.38;99987.88;5032608;28;20029;-73
2022/06/20 10:50:46;;;;;;;6.43;3.47;;;;;;;22.68;53.41;99975.69;5052084;28;20075;-73
2022/06/20 10:53:43;;;;;;;6.88;2.78;;;;;;;22.76;53.21;99978.63;5038292;28;20450;-74
2022/06/20 10:56:22;;;;;;;7.10;3.67;;;;;;;22.40;52.96;100002.91;5038449;28;20481;-74
2022/06/20 10:59:14;;;;;;;6.07;3.67;;;;;;;22.18;53.32;99995.66;5048013;28;20107;-73
2022/06/20 11:02:21;;;;;;;6.80;2.67;;;;;;;22.02;53.41;100003.94;5033603;28;20036;-72
2022/06/20 11:05:03;;;;;;;5.40;2.33;;;;;;;21.71;54.98;100014.28;5033565;28;20061;-71
2022/06/20 11:07:31;;;;;;;4.18;2.20;;;;;;;21.68;55.00;100006.47;5031350;28;20037;-74
2022/06/20 11:10:04;;;;;;;5.05;1.98;;;;;;;21.72;55.27;100020.47;5020082;28;20052;-73
2022/06/20 11:12:45;;;;;;;5.20;2.08;;;;;;;21.59;55.01;100015.19;5031500;28;20029;-73
2022/06/20 11:15:29;;;;;;;7.07;2.65;;;;;;;21.61;55.09;100014.09;5036923;28;20041;-73
2022/06/20 11:18:24;;;;;;;5.80;2.10;;;;;;;21.62;54.58;100014.94;5046212;28;20040;-73
2022/06/20 11:21:14;;;;;;;6.75;1.92;;;;;;;21.69;54.89;100000.16;5006548;28;20541;-70
2022/06/20 11:23:51;;;;;;;4.03;1.60;;;;;;;21.88;54.55;100002.31;5042426;28;20045;-73
2022/06/20 11:26:42;;;;;;;5.53;1.70;;;;;;;21.88;54.80;100013.88;5048934;28;20030;-74
2022/06/20 11:29:21;;;;;;;3.10;1.08;;;;;;;22.23;53.19;100014.91;5040702;28;20045;-72
2022/06/20 11:32:06;;;;;;;7.07;2.03;;;;;;;21.33;54.18;100003.69;5025329;28;20040;-73
2022/06/20 11:34:53;;;;;;;6.50;1.50;;;;;;;21.38;54.52;99989.06;5031094;28;20037;-73
2022/06/20 11:37:34;;;;;;;4.93;1.50;;;;;;;21.49;55.17;99990.06;5049016;28;20034;-72
2022/06/20 11:40:21;;;;;;;2.22;1.10;;;;;;;21.76;54.32;99989.88;5049356;28;20033;-72
2022/06/20 11:43:04;;;;;;;5.53;1.60;;;;;;;21.62;54.11;99974.84;5041191;28;20036;-73
2022/06/20 11:45:48;;;;;;;5.70;1.60;;;;;;;22.14;53.57;99941.53;5013890;28;20095;-71
2022/06/20 11:48:35;;;;;;;4.65;1.70;;;;;;;22.60;52.43;99956.72;5037134;28;20064;-72
2022/06/20 11:51:21;;;;;;;5.30;1.70;;;;;;;22.59;51.81;99963.03;5037186;28;20031;-70
2022/06/20 11:54:20;;;;;;;7.65;1.75;;;;;;;22.56;51.66;99952.56;5036303;28;20118;-72
2022/06/20 11:56:57;;;;;;;10.98;5.70;;;;;;;23.30;50.46;99929.66;5032696;28;20041;-72
2022/06/20 11:59:34;;;;;;;8.05;4.55;;;;;;;23.94;49.09;99931.53;5047755;28;20036;-73
2022/06/20 12:02:18;;;;;;;7.53;2.80;;;;;;;24.48;48.65;99929.66;5049529;28;20192;-72
2022/06/20 12:04:56;;;;;;;5.70;2.70;;;;;;;24.92;47.06;99938.34;5046208;28;20033;-73
2022/06/20 12:07:37;;;;;;;4.00;1.77;;;;;;;25.42;46.14;99946.44;5049466;28;20028;-73
2022/06/20 12:10:31;;;;;;;4.90;1.95;;;;;;;25.37;45.05;99949.53;5038417;28;20033;-73
2022/06/20 12:13:21;;;;;;;8.32;1.98;;;;;;;25.67;44.81;99959.34;5021307;28;20464;-73
2022/06/20 12:16:08;;;;;;;2.47;1.40;;;;;;;25.88;44.82;99955.72;5023394;28;20112;-73
2022/06/20 12:18:34;;;;;;;3.90;1.60;;;;;;;25.99;45.62;99960.97;5040328;28;20045;-73
2022/06/20 12:23:59;;;;;;;4.63;1.75;;;;;;;26.27;44.36;99959.22;5040619;28;20049;-73
2022/06/20 12:26:39;;;;;;;4.03;1.45;;;;;;;26.13;44.43;99962.34;5032961;28;20477;-74